sensor_id;sensor_type;location;lat;lon;timestamp;pressure;altitude;pressure_sealevel;temperature;humidity
6514;BME280;3290;47.716;9.070;2023-02-19T00:01:43;97650.41;;;12.17;82.26
6514;BME280;3290;47.716;9.070;2023-02-19T00:06:35;97647.19;;;12.08;82.76
6514;BME280;3290;47.716;9.070;2023-02-19T00:09:02;97639.16;;;11.97;83.61
6514;BME280;3290;47.716;9.070;2023-02-19T00:11:30;97642.78;;;12.02;82.88
6514;BME280;3290;47.716;9.070;2023-02-19T00:13:57;97642.13;;;12.07;82.72
6514;BME280;3290;47.716;9.070;2023-02-19T00:18:50;97635.91;;;11.95;82.63
6514;BME280;3290;47.716;9.070;2023-02-19T00:21:16;97639.94;;;11.91;82.90
6514;BME280;3290;47.716;9.070;2023-02-19T00:23:42;97638.94;;;11.86;83.90
6514;BME280;3290;47.716;9.070;2023-02-19T00:26:10;97633.09;;;11.90;83.35
6514;BME280;3290;47.716;9.070;2023-02-19T00:28:36;97637.94;;;11.80;83.53
6514;BME280;3290;47.716;9.070;2023-02-19T00:31:09;97633.91;;;11.84;83.87
6514;BME280;3290;47.716;9.070;2023-02-19T00:33:39;97636.16;;;11.74;84.35
6514;BME280;3290;47.716;9.070;2023-02-19T00:36:04;97634.94;;;11.70;84.18
6514;BME280;3290;47.716;9.070;2023-02-19T00:38:31;97632.34;;;11.64;84.59
6514;BME280;3290;47.716;9.070;2023-02-19T00:41:00;97636.34;;;11.73;83.92
6514;BME280;3290;47.716;9.070;2023-02-19T00:43:26;97636.75;;;11.63;84.80
6514;BME280;3290;47.716;9.070;2023-02-19T00:45:52;97625.06;;;11.66;84.73
6514;BME280;3290;47.716;9.070;2023-02-19T00:48:17;97626.28;;;11.51;84.71
6514;BME280;3290;47.716;9.070;2023-02-19T00:50:42;97631.72;;;11.56;85.69
6514;BME280;3290;47.716;9.070;2023-02-19T00:53:08;97628.50;;;11.54;85.69
6514;BME280;3290;47.716;9.070;2023-02-19T00:55:33;97630.31;;;11.59;84.57
6514;BME280;3290;47.716;9.070;2023-02-19T00:57:59;97620.19;;;11.57;84.88
6514;BME280;3290;47.716;9.070;2023-02-19T01:00:24;97634.34;;;11.56;85.52
6514;BME280;3290;47.716;9.070;2023-02-19T01:02:49;97631.50;;;11.51;85.09
6514;BME280;3290;47.716;9.070;2023-02-19T01:05:15;97632.72;;;11.55;84.99
6514;BME280;3290;47.716;9.070;2023-02-19T01:07:40;97636.38;;;11.47;85.22
6514;BME280;3290;47.716;9.070;2023-02-19T01:10:05;97623.59;;;11.44;85.63
6514;BME280;3290;47.716;9.070;2023-02-19T01:12:31;97629.47;;;11.40;85.29
6514;BME280;3290;47.716;9.070;2023-02-19T01:14:57;97622.00;;;11.37;85.79
6514;BME280;3290;47.716;9.070;2023-02-19T01:17:22;97623.84;;;11.43;86.05
6514;BME280;3290;47.716;9.070;2023-02-19T01:19:48;97620.19;;;11.31;85.87
6514;BME280;3290;47.716;9.070;2023-02-19T01:22:14;97618.19;;;11.33;87.16
6514;BME280;3290;47.716;9.070;2023-02-19T01:24:39;97618.59;;;11.23;87.01
6514;BME280;3290;47.716;9.070;2023-02-19T01:27:04;97618.97;;;11.20;87.04
6514;BME280;3290;47.716;9.070;2023-02-19T01:29:30;97620.97;;;11.25;86.98
6514;BME280;3290;47.716;9.070;2023-02-19T01:31:55;97620.59;;;11.28;87.09
6514;BME280;3290;47.716;9.070;2023-02-19T01:34:20;97617.13;;;11.15;87.24
6514;BME280;3290;47.716;9.070;2023-02-19T01:36:46;97623.59;;;11.12;87.64
6514;BME280;3290;47.716;9.070;2023-02-19T01:39:11;97626.44;;;11.17;87.52
6514;BME280;3290;47.716;9.070;2023-02-19T01:41:38;97623.22;;;11.28;86.50
6514;BME280;3290;47.716;9.070;2023-02-19T01:46:43;97609.28;;;11.27;86.80
6514;BME280;3290;47.716;9.070;2023-02-19T01:49:16;97606.84;;;11.07;88.54
6514;BME280;3290;47.716;9.070;2023-02-19T01:51:58;97604.66;;;11.10;88.01
6514;BME280;3290;47.716;9.070;2023-02-19T01:54:27;97601.59;;;11.00;88.85
6514;BME280;3290;47.716;9.070;2023-02-19T01:56:55;97590.72;;;11.03;88.53
6514;BME280;3290;47.716;9.070;2023-02-19T01:59:22;97581.47;;;11.01;89.24
6514;BME280;3290;47.716;9.070;2023-02-19T02:01:48;97580.44;;;11.02;89.10
6514;BME280;3290;47.716;9.070;2023-02-19T02:04:14;97583.66;;;10.97;89.89
6514;BME280;3290;47.716;9.070;2023-02-19T02:06:47;97585.47;;;10.97;89.01
6514;BME280;3290;47.716;9.070;2023-02-19T02:09:14;97593.72;;;10.87;89.46
6514;BME280;3290;47.716;9.070;2023-02-19T02:11:59;97591.94;;;11.01;89.21
6514;BME280;3290;47.716;9.070;2023-02-19T02:14:27;97587.47;;;10.95;89.75
6514;BME280;3290;47.716;9.070;2023-02-19T02:22:37;97584.84;;;10.76;91.57
6514;BME280;3290;47.716;9.070;2023-02-19T02:36:02;97562.88;;;10.96;90.49
6514;BME280;3290;47.716;9.070;2023-02-19T02:38:32;97570.34;;;11.05;89.65
6514;BME280;3290;47.716;9.070;2023-02-19T02:40:59;97564.91;;;11.00;89.23
6514;BME280;3290;47.716;9.070;2023-02-19T02:43:26;97547.94;;;11.09;89.77
6514;BME280;3290;47.716;9.070;2023-02-19T02:45:51;97566.13;;;11.17;89.08
6514;BME280;3290;47.716;9.070;2023-02-19T02:48:38;97567.13;;;11.10;89.91
6514;BME280;3290;47.716;9.070;2023-02-19T02:53:43;97562.47;;;11.18;88.88
6514;BME280;3290;47.716;9.070;2023-02-19T02:56:30;97557.84;;;11.14;89.75
6514;BME280;3290;47.716;9.070;2023-02-19T02:58:57;97556.03;;;11.14;89.75
6514;BME280;3290;47.716;9.070;2023-02-19T03:01:29;97566.50;;;11.14;89.70
6514;BME280;3290;47.716;9.070;2023-02-19T03:04:42;97577.22;;;11.19;89.68
6514;BME280;3290;47.716;9.070;2023-02-19T03:07:28;97571.38;;;11.23;89.62
6514;BME280;3290;47.716;9.070;2023-02-19T03:09:57;97572.78;;;11.26;89.63
6514;BME280;3290;47.716;9.070;2023-02-19T03:12:25;97572.97;;;11.05;91.64
6514;BME280;3290;47.716;9.070;2023-02-19T03:15:13;97560.25;;;11.09;92.17
6514;BME280;3290;47.716;9.070;2023-02-19T03:18:01;97556.81;;;11.15;90.80
6514;BME280;3290;47.716;9.070;2023-02-19T03:20:49;97561.50;;;11.06;91.97
6514;BME280;3290;47.716;9.070;2023-02-19T03:23:16;97554.00;;;10.97;92.38
6514;BME280;3290;47.716;9.070;2023-02-19T03:25:43;97554.44;;;11.13;93.35
6514;BME280;3290;47.716;9.070;2023-02-19T03:28:29;97558.03;;;11.12;94.18
6514;BME280;3290;47.716;9.070;2023-02-19T03:31:18;97570.53;;;11.04;95.90
6514;BME280;3290;47.716;9.070;2023-02-19T03:33:47;97573.56;;;10.94;95.00
6514;BME280;3290;47.716;9.070;2023-02-19T03:36:14;97574.19;;;10.96;95.25
6514;BME280;3290;47.716;9.070;2023-02-19T03:38:53;97581.03;;;11.10;95.49
6514;BME280;3290;47.716;9.070;2023-02-19T03:43:59;97580.41;;;10.95;95.64
6514;BME280;3290;47.716;9.070;2023-02-19T03:46:39;97576.59;;;10.91;96.15
6514;BME280;3290;47.716;9.070;2023-02-19T03:49:24;97549.56;;;10.84;97.34
6514;BME280;3290;47.716;9.070;2023-02-19T03:52:08;97566.69;;;10.93;96.57
6514;BME280;3290;47.716;9.070;2023-02-19T03:54:43;97547.16;;;10.77;98.12
6514;BME280;3290;47.716;9.070;2023-02-19T03:57:29;97541.72;;;10.78;97.72
6514;BME280;3290;47.716;9.070;2023-02-19T04:02:39;97542.28;;;10.86;98.28
6514;BME280;3290;47.716;9.070;2023-02-19T04:05:12;97534.25;;;10.81;98.00
6514;BME280;3290;47.716;9.070;2023-02-19T04:07:44;97539.06;;;10.84;98.57
6514;BME280;3290;47.716;9.070;2023-02-19T04:10:12;97538.28;;;10.90;98.58
6514;BME280;3290;47.716;9.070;2023-02-19T04:12:43;97546.75;;;10.92;98.94
6514;BME280;3290;47.716;9.070;2023-02-19T04:15:13;97542.13;;;10.81;98.80
6514;BME280;3290;47.716;9.070;2023-02-19T04:17:45;97539.88;;;10.66;99.04
6514;BME280;3290;47.716;9.070;2023-02-19T04:20:13;97531.41;;;10.77;99.42
6514;BME280;3290;47.716;9.070;2023-02-19T04:22:40;97521.53;;;10.78;99.41
6514;BME280;3290;47.716;9.070;2023-02-19T04:25:06;97541.09;;;10.82;98.94
6514;BME280;3290;47.716;9.070;2023-02-19T04:27:35;97546.13;;;10.84;98.04
6514;BME280;3290;47.716;9.070;2023-02-19T04:30:01;97540.69;;;10.85;98.34
6514;BME280;3290;47.716;9.070;2023-02-19T04:32:26;97536.25;;;10.79;99.47
6514;BME280;3290;47.716;9.070;2023-02-19T04:34:52;97531.81;;;10.80;98.99
6514;BME280;3290;47.716;9.070;2023-02-19T04:37:17;97541.31;;;10.75;98.84
6514;BME280;3290;47.716;9.070;2023-02-19T04:39:42;97559.25;;;10.90;97.79
6514;BME280;3290;47.716;9.070;2023-02-19T04:42:09;97552.81;;;10.99;97.29
6514;BME280;3290;47.716;9.070;2023-02-19T04:44:34;97548.38;;;11.00;96.31
6514;BME280;3290;47.716;9.070;2023-02-19T04:47:00;97556.44;;;10.98;96.86
6514;BME280;3290;47.716;9.070;2023-02-19T04:49:25;97566.13;;;10.98;98.33
6514;BME280;3290;47.716;9.070;2023-02-19T04:51:51;97564.28;;;10.98;97.47
6514;BME280;3290;47.716;9.070;2023-02-19T04:54:16;97570.13;;;10.87;98.63
6514;BME280;3290;47.716;9.070;2023-02-19T04:56:41;97566.09;;;10.78;98.71
6514;BME280;3290;47.716;9.070;2023-02-19T04:59:07;97570.69;;;10.57;100.00
6514;BME280;3290;47.716;9.070;2023-02-19T05:01:32;97563.88;;;10.82;99.23
6514;BME280;3290;47.716;9.070;2023-02-19T05:03:57;97567.66;;;10.60;100.00
6514;BME280;3290;47.716;9.070;2023-02-19T05:06:23;97569.31;;;10.80;99.20
6514;BME280;3290;47.716;9.070;2023-02-19T05:08:48;97567.31;;;10.82;99.41
6514;BME280;3290;47.716;9.070;2023-02-19T05:11:13;97565.72;;;10.81;98.95
6514;BME280;3290;47.716;9.070;2023-02-19T05:13:39;97575.38;;;10.75;99.50
6514;BME280;3290;47.716;9.070;2023-02-19T05:16:13;97566.91;;;10.98;98.10
6514;BME280;3290;47.716;9.070;2023-02-19T05:18:41;97573.34;;;11.02;98.36
6514;BME280;3290;47.716;9.070;2023-02-19T05:21:07;97565.28;;;10.84;100.00
6514;BME280;3290;47.716;9.070;2023-02-19T05:23:32;97578.59;;;10.89;99.02
6514;BME280;3290;47.716;9.070;2023-02-19T05:25:58;97577.00;;;10.82;99.35
6514;BME280;3290;47.716;9.070;2023-02-19T05:28:23;97575.38;;;10.87;99.31
6514;BME280;3290;47.716;9.070;2023-02-19T05:31:03;97577.81;;;10.89;99.42
6514;BME280;3290;47.716;9.070;2023-02-19T05:33:29;97585.66;;;10.82;100.00
6514;BME280;3290;47.716;9.070;2023-02-19T05:35:54;97590.69;;;10.97;98.39
6514;BME280;3290;47.716;9.070;2023-02-19T05:38:21;97589.09;;;10.89;98.87
6514;BME280;3290;47.716;9.070;2023-02-19T05:40:46;97605.63;;;10.96;99.17
6514;BME280;3290;47.716;9.070;2023-02-19T05:43:12;97612.50;;;11.04;98.16
6514;BME280;3290;47.716;9.070;2023-02-19T05:45:38;97609.28;;;11.08;97.95
6514;BME280;3290;47.716;9.070;2023-02-19T05:48:05;97609.50;;;11.13;98.57
6514;BME280;3290;47.716;9.070;2023-02-19T05:50:33;97608.44;;;10.95;99.54
6514;BME280;3290;47.716;9.070;2023-02-19T05:53:03;97614.91;;;10.99;99.40
6514;BME280;3290;47.716;9.070;2023-02-19T05:55:33;97617.34;;;11.00;99.48
6514;BME280;3290;47.716;9.070;2023-02-19T05:57:59;97625.19;;;11.00;98.61
6514;BME280;3290;47.716;9.070;2023-02-19T06:00:24;97629.03;;;10.98;98.59
6514;BME280;3290;47.716;9.070;2023-02-19T06:02:51;97633.25;;;10.86;99.89
6514;BME280;3290;47.716;9.070;2023-02-19T06:05:17;97634.09;;;10.99;98.84
6514;BME280;3290;47.716;9.070;2023-02-19T06:07:43;97632.66;;;10.90;99.08
6514;BME280;3290;47.716;9.070;2023-02-19T06:10:10;97622.19;;;10.90;100.00
6514;BME280;3290;47.716;9.070;2023-02-19T06:12:36;97632.22;;;10.80;100.00
6514;BME280;3290;47.716;9.070;2023-02-19T06:15:02;97631.00;;;10.77;100.00
6514;BME280;3290;47.716;9.070;2023-02-19T06:17:29;97640.09;;;10.80;100.00
6514;BME280;3290;47.716;9.070;2023-02-19T06:19:54;97638.72;;;10.97;99.99
6514;BME280;3290;47.716;9.070;2023-02-19T06:22:19;97643.91;;;10.72;100.00
6514;BME280;3290;47.716;9.070;2023-02-19T06:24:46;97643.91;;;10.84;100.00
6514;BME280;3290;47.716;9.070;2023-02-19T06:27:11;97636.28;;;10.89;100.00
6514;BME280;3290;47.716;9.070;2023-02-19T06:29:37;97643.91;;;10.84;100.00
6514;BME280;3290;47.716;9.070;2023-02-19T06:32:03;97637.84;;;10.77;100.00
6514;BME280;3290;47.716;9.070;2023-02-19T06:34:29;97648.78;;;10.87;100.00
6514;BME280;3290;47.716;9.070;2023-02-19T06:36:55;97656.81;;;10.79;100.00
6514;BME280;3290;47.716;9.070;2023-02-19T06:39:20;97662.09;;;10.92;100.00
6514;BME280;3290;47.716;9.070;2023-02-19T06:41:46;97668.94;;;10.93;100.00
6514;BME280;3290;47.716;9.070;2023-02-19T06:44:11;97668.53;;;10.83;100.00
6514;BME280;3290;47.716;9.070;2023-02-19T06:46:36;97665.53;;;10.93;100.00
6514;BME280;3290;47.716;9.070;2023-02-19T06:49:03;97671.34;;;10.82;100.00
6514;BME280;3290;47.716;9.070;2023-02-19T06:51:29;97665.09;;;10.83;99.94
6514;BME280;3290;47.716;9.070;2023-02-19T06:53:57;97667.28;;;10.79;100.00
6514;BME280;3290;47.716;9.070;2023-02-19T06:56:28;97675.38;;;10.84;100.00
6514;BME280;3290;47.716;9.070;2023-02-19T06:58:55;97679.00;;;10.77;100.00
6514;BME280;3290;47.716;9.070;2023-02-19T07:01:21;97687.03;;;10.76;100.00
6514;BME280;3290;47.716;9.070;2023-02-19T07:03:47;97681.63;;;10.83;100.00
6514;BME280;3290;47.716;9.070;2023-02-19T07:06:13;97691.34;;;10.96;100.00
6514;BME280;3290;47.716;9.070;2023-02-19T07:08:38;97688.78;;;11.41;96.93
6514;BME280;3290;47.716;9.070;2023-02-19T07:11:04;97691.69;;;11.59;96.89
6514;BME280;3290;47.716;9.070;2023-02-19T07:13:29;97702.94;;;11.40;96.57
6514;BME280;3290;47.716;9.070;2023-02-19T07:16:00;97700.69;;;11.37;97.53
6514;BME280;3290;47.716;9.070;2023-02-19T07:18:26;97710.88;;;11.78;94.86
6514;BME280;3290;47.716;9.070;2023-02-19T07:20:51;97713.25;;;12.05;92.90
6514;BME280;3290;47.716;9.070;2023-02-19T07:23:17;97706.16;;;12.12;91.74
6514;BME280;3290;47.716;9.070;2023-02-19T07:25:42;97717.06;;;12.29;90.67
6514;BME280;3290;47.716;9.070;2023-02-19T07:28:07;97722.22;;;12.67;88.94
6514;BME280;3290;47.716;9.070;2023-02-19T07:30:33;97718.22;;;12.45;89.00
6514;BME280;3290;47.716;9.070;2023-02-19T07:32:58;97734.53;;;12.73;88.04
6514;BME280;3290;47.716;9.070;2023-02-19T07:35:23;97739.19;;;12.78;87.15
6514;BME280;3290;47.716;9.070;2023-02-19T07:37:49;97736.72;;;13.32;84.92
6514;BME280;3290;47.716;9.070;2023-02-19T07:40:14;97743.06;;;13.19;84.66
6514;BME280;3290;47.716;9.070;2023-02-19T07:42:39;97739.72;;;13.66;82.60
6514;BME280;3290;47.716;9.070;2023-02-19T07:45:05;97751.06;;;13.36;82.13
6514;BME280;3290;47.716;9.070;2023-02-19T07:47:31;97748.09;;;13.57;81.75
6514;BME280;3290;47.716;9.070;2023-02-19T07:49:56;97755.53;;;13.36;82.06
6514;BME280;3290;47.716;9.070;2023-02-19T07:52:21;97757.97;;;13.92;80.44
6514;BME280;3290;47.716;9.070;2023-02-19T07:54:47;97753.69;;;14.22;77.97
6514;BME280;3290;47.716;9.070;2023-02-19T07:57:12;97761.66;;;14.15;78.15
6514;BME280;3290;47.716;9.070;2023-02-19T07:59:38;97761.72;;;14.09;77.95
6514;BME280;3290;47.716;9.070;2023-02-19T08:02:07;97770.50;;;13.97;79.04
6514;BME280;3290;47.716;9.070;2023-02-19T08:04:52;97762.53;;;13.79;79.58
6514;BME280;3290;47.716;9.070;2023-02-19T08:07:17;97770.56;;;12.66;83.95
6514;BME280;3290;47.716;9.070;2023-02-19T08:09:42;97783.25;;;12.88;84.24
6514;BME280;3290;47.716;9.070;2023-02-19T08:12:09;97783.88;;;12.84;84.86
6514;BME280;3290;47.716;9.070;2023-02-19T08:14:53;97785.34;;;12.54;86.87
6514;BME280;3290;47.716;9.070;2023-02-19T08:17:19;97787.00;;;12.42;87.23
6514;BME280;3290;47.716;9.070;2023-02-19T08:19:44;97785.38;;;12.16;89.01
6514;BME280;3290;47.716;9.070;2023-02-19T08:22:10;97785.19;;;12.17;89.57
6514;BME280;3290;47.716;9.070;2023-02-19T08:24:35;97783.78;;;11.89;90.63
6514;BME280;3290;47.716;9.070;2023-02-19T08:27:01;97788.19;;;11.69;92.26
6514;BME280;3290;47.716;9.070;2023-02-19T08:29:27;97796.28;;;12.00;90.85
6514;BME280;3290;47.716;9.070;2023-02-19T08:31:52;97796.69;;;11.84;91.88
6514;BME280;3290;47.716;9.070;2023-02-19T08:34:18;97807.00;;;11.86;91.70
6514;BME280;3290;47.716;9.070;2023-02-19T08:36:43;97786.56;;;11.68;92.27
6514;BME280;3290;47.716;9.070;2023-02-19T08:39:08;97797.38;;;11.40;94.16
6514;BME280;3290;47.716;9.070;2023-02-19T08:41:34;97796.38;;;11.41;94.46
6514;BME280;3290;47.716;9.070;2023-02-19T08:43:59;97804.31;;;11.54;94.77
6514;BME280;3290;47.716;9.070;2023-02-19T08:46:25;97802.69;;;11.46;94.25
6514;BME280;3290;47.716;9.070;2023-02-19T08:48:50;97809.97;;;11.51;94.67
6514;BME280;3290;47.716;9.070;2023-02-19T08:51:16;97818.03;;;11.49;95.01
6514;BME280;3290;47.716;9.070;2023-02-19T08:53:41;97821.09;;;11.59;94.04
6514;BME280;3290;47.716;9.070;2023-02-19T08:56:12;97818.66;;;11.58;93.59
6514;BME280;3290;47.716;9.070;2023-02-19T08:58:38;97821.66;;;11.48;95.08
6514;BME280;3290;47.716;9.070;2023-02-19T09:01:16;97830.44;;;11.28;96.47
6514;BME280;3290;47.716;9.070;2023-02-19T09:03:42;97836.88;;;11.19;96.31
6514;BME280;3290;47.716;9.070;2023-02-19T09:06:19;97832.22;;;11.21;96.86
6514;BME280;3290;47.716;9.070;2023-02-19T09:08:45;97843.41;;;11.36;95.54
6514;BME280;3290;47.716;9.070;2023-02-19T09:11:11;97834.78;;;11.48;96.01
6514;BME280;3290;47.716;9.070;2023-02-19T09:13:36;97828.94;;;11.46;95.71
6514;BME280;3290;47.716;9.070;2023-02-19T09:16:05;97824.69;;;11.45;96.20
6514;BME280;3290;47.716;9.070;2023-02-19T09:18:31;97830.97;;;11.63;94.61
6514;BME280;3290;47.716;9.070;2023-02-19T09:21:00;97826.41;;;12.17;93.07
6514;BME280;3290;47.716;9.070;2023-02-19T09:23:26;97819.72;;;11.82;93.15
6514;BME280;3290;47.716;9.070;2023-02-19T09:25:59;97815.72;;;12.18;91.26
6514;BME280;3290;47.716;9.070;2023-02-19T09:28:26;97824.69;;;13.06;87.12
6514;BME280;3290;47.716;9.070;2023-02-19T09:30:51;97815.50;;;13.27;85.45
6514;BME280;3290;47.716;9.070;2023-02-19T09:33:17;97820.34;;;13.30;84.26
6514;BME280;3290;47.716;9.070;2023-02-19T09:35:42;97824.69;;;13.86;81.59
6514;BME280;3290;47.716;9.070;2023-02-19T09:38:08;97813.94;;;14.18;79.92
6514;BME280;3290;47.716;9.070;2023-02-19T09:40:36;97812.66;;;13.97;80.35
6514;BME280;3290;47.716;9.070;2023-02-19T09:43:05;97812.91;;;13.58;80.96
6514;BME280;3290;47.716;9.070;2023-02-19T09:45:33;97815.66;;;14.06;79.65
6514;BME280;3290;47.716;9.070;2023-02-19T09:48:00;97808.41;;;14.26;77.89
6514;BME280;3290;47.716;9.070;2023-02-19T09:50:32;97811.47;;;14.47;76.94
6514;BME280;3290;47.716;9.070;2023-02-19T09:53:02;97816.56;;;14.67;76.17
6514;BME280;3290;47.716;9.070;2023-02-19T09:55:34;97809.03;;;14.70;74.96
6514;BME280;3290;47.716;9.070;2023-02-19T09:58:15;97818.16;;;14.68;75.48
6514;BME280;3290;47.716;9.070;2023-02-19T10:00:42;97810.91;;;14.63;74.63
6514;BME280;3290;47.716;9.070;2023-02-19T10:03:20;97812.09;;;14.67;74.05
6514;BME280;3290;47.716;9.070;2023-02-19T10:05:46;97805.09;;;14.55;74.34
6514;BME280;3290;47.716;9.070;2023-02-19T10:08:18;97806.81;;;14.85;72.18
6514;BME280;3290;47.716;9.070;2023-02-19T10:10:43;97808.81;;;15.07;71.89
6514;BME280;3290;47.716;9.070;2023-02-19T10:13:22;97817.38;;;14.19;74.78
6514;BME280;3290;47.716;9.070;2023-02-19T10:16:19;97826.97;;;14.97;72.32
6514;BME280;3290;47.716;9.070;2023-02-19T10:18:46;97831.56;;;15.44;70.12
6514;BME280;3290;47.716;9.070;2023-02-19T10:21:18;97830.84;;;15.37;69.18
6514;BME280;3290;47.716;9.070;2023-02-19T10:23:45;97832.28;;;15.15;70.63
6514;BME280;3290;47.716;9.070;2023-02-19T10:26:12;97847.34;;;14.73;71.93
6514;BME280;3290;47.716;9.070;2023-02-19T10:28:38;97849.78;;;14.50;73.02
6514;BME280;3290;47.716;9.070;2023-02-19T10:31:10;97847.72;;;14.28;74.51
6514;BME280;3290;47.716;9.070;2023-02-19T10:33:56;97841.03;;;15.33;70.19
6514;BME280;3290;47.716;9.070;2023-02-19T10:36:31;97832.75;;;15.77;67.81
6514;BME280;3290;47.716;9.070;2023-02-19T10:38:59;97830.81;;;15.84;66.93
6514;BME280;3290;47.716;9.070;2023-02-19T10:41:26;97836.00;;;16.31;64.88
6514;BME280;3290;47.716;9.070;2023-02-19T10:44:05;97839.69;;;16.30;64.49
6514;BME280;3290;47.716;9.070;2023-02-19T10:46:35;97835.84;;;16.14;64.93
6514;BME280;3290;47.716;9.070;2023-02-19T10:49:30;97836.41;;;15.76;66.02
6514;BME280;3290;47.716;9.070;2023-02-19T10:52:00;97836.69;;;15.97;65.18
6514;BME280;3290;47.716;9.070;2023-02-19T10:54:28;97835.78;;;16.21;65.05
6514;BME280;3290;47.716;9.070;2023-02-19T10:59:53;97847.91;;;16.96;60.52
6514;BME280;3290;47.716;9.070;2023-02-19T11:02:20;97844.78;;;16.65;60.98
6514;BME280;3290;47.716;9.070;2023-02-19T11:07:58;97845.03;;;16.52;61.54
6514;BME280;3290;47.716;9.070;2023-02-19T11:10:40;97838.59;;;16.48;60.36
6514;BME280;3290;47.716;9.070;2023-02-19T11:13:13;97845.94;;;16.69;59.42
6514;BME280;3290;47.716;9.070;2023-02-19T11:15:40;97845.09;;;16.23;61.89
6514;BME280;3290;47.716;9.070;2023-02-19T11:18:22;97839.84;;;16.57;61.06
6514;BME280;3290;47.716;9.070;2023-02-19T11:21:05;97826.53;;;16.12;61.55
6514;BME280;3290;47.716;9.070;2023-02-19T11:23:35;97824.63;;;16.30;61.78
6514;BME280;3290;47.716;9.070;2023-02-19T11:26:06;97831.81;;;16.12;62.19
6514;BME280;3290;47.716;9.070;2023-02-19T11:28:40;97825.44;;;16.53;61.01
6514;BME280;3290;47.716;9.070;2023-02-19T11:31:29;97827.19;;;14.96;65.05
6514;BME280;3290;47.716;9.070;2023-02-19T11:36:37;97811.75;;;15.64;64.85
6514;BME280;3290;47.716;9.070;2023-02-19T11:47:34;97809.44;;;15.85;62.59
6514;BME280;3290;47.716;9.070;2023-02-19T11:50:24;97803.22;;;14.97;65.41
6514;BME280;3290;47.716;9.070;2023-02-19T12:21:13;97800.72;;;13.94;69.68
6514;BME280;3290;47.716;9.070;2023-02-19T12:34:34;97819.09;;;12.83;77.01
6514;BME280;3290;47.716;9.070;2023-02-19T12:45:32;97817.84;;;12.79;77.58
6514;BME280;3290;47.716;9.070;2023-02-19T12:48:08;97824.75;;;12.61;78.40
6514;BME280;3290;47.716;9.070;2023-02-19T12:50:39;97832.44;;;12.62;79.03
6514;BME280;3290;47.716;9.070;2023-02-19T12:53:32;97838.28;;;12.90;77.66
6514;BME280;3290;47.716;9.070;2023-02-19T12:56:02;97842.75;;;12.70;78.22
6514;BME280;3290;47.716;9.070;2023-02-19T12:58:36;97839.53;;;12.62;77.94
6514;BME280;3290;47.716;9.070;2023-02-19T13:01:04;97843.00;;;12.49;78.17
6514;BME280;3290;47.716;9.070;2023-02-19T13:11:44;97834.47;;;12.47;71.65
6514;BME280;3290;47.716;9.070;2023-02-19T13:17:19;97831.41;;;12.89;69.14
6514;BME280;3290;47.716;9.070;2023-02-19T13:19:49;97837.66;;;13.01;68.80
6514;BME280;3290;47.716;9.070;2023-02-19T13:22:42;97830.41;;;13.40;67.84
6514;BME280;3290;47.716;9.070;2023-02-19T13:25:44;97837.94;;;13.73;68.49
6514;BME280;3290;47.716;9.070;2023-02-19T13:28:51;97821.19;;;13.61;66.90
6514;BME280;3290;47.716;9.070;2023-02-19T13:36:45;97808.38;;;13.71;65.24
6514;BME280;3290;47.716;9.070;2023-02-19T13:39:14;97808.69;;;13.88;64.38
6514;BME280;3290;47.716;9.070;2023-02-19T13:41:42;97810.38;;;13.76;64.86
6514;BME280;3290;47.716;9.070;2023-02-19T13:44:19;97806.03;;;13.57;65.20
6514;BME280;3290;47.716;9.070;2023-02-19T13:46:47;97798.38;;;13.49;66.52
6514;BME280;3290;47.716;9.070;2023-02-19T13:51:59;97803.41;;;14.18;63.05
6514;BME280;3290;47.716;9.070;2023-02-19T13:54:33;97802.22;;;14.81;60.84
6514;BME280;3290;47.716;9.070;2023-02-19T14:00:46;97810.25;;;14.85;60.45
6514;BME280;3290;47.716;9.070;2023-02-19T14:03:44;97819.91;;;14.07;61.82
6514;BME280;3290;47.716;9.070;2023-02-19T14:06:09;97804.31;;;13.99;61.80
6514;BME280;3290;47.716;9.070;2023-02-19T14:08:55;97805.66;;;14.15;61.54
6514;BME280;3290;47.716;9.070;2023-02-19T14:14:38;97818.47;;;14.78;59.33
6514;BME280;3290;47.716;9.070;2023-02-19T14:25:48;97802.03;;;15.64;56.78
6514;BME280;3290;47.716;9.070;2023-02-19T14:33:23;97812.81;;;14.32;60.32
6514;BME280;3290;47.716;9.070;2023-02-19T14:36:17;97813.69;;;13.96;62.81
6514;BME280;3290;47.716;9.070;2023-02-19T14:41:36;97808.94;;;13.43;65.70
6514;BME280;3290;47.716;9.070;2023-02-19T14:44:04;97818.97;;;13.21;66.80
6514;BME280;3290;47.716;9.070;2023-02-19T14:46:33;97816.81;;;12.93;68.19
6514;BME280;3290;47.716;9.070;2023-02-19T14:49:13;97807.88;;;13.07;68.10
6514;BME280;3290;47.716;9.070;2023-02-19T14:51:42;97813.38;;;12.99;69.20
6514;BME280;3290;47.716;9.070;2023-02-19T14:54:47;97809.09;;;13.11;68.91
6514;BME280;3290;47.716;9.070;2023-02-19T14:57:10;97803.31;;;12.83;69.71
6514;BME280;3290;47.716;9.070;2023-02-19T14:59:36;97800.25;;;12.79;69.89
6514;BME280;3290;47.716;9.070;2023-02-19T15:02:22;97810.78;;;12.86;70.08
6514;BME280;3290;47.716;9.070;2023-02-19T15:04:50;97810.56;;;12.94;69.07
6514;BME280;3290;47.716;9.070;2023-02-19T15:07:20;97814.28;;;13.23;68.29
6514;BME280;3290;47.716;9.070;2023-02-19T15:09:50;97819.63;;;13.85;65.76
6514;BME280;3290;47.716;9.070;2023-02-19T15:12:16;97817.59;;;13.87;65.82
6514;BME280;3290;47.716;9.070;2023-02-19T15:14:44;97822.38;;;13.72;66.20
6514;BME280;3290;47.716;9.070;2023-02-19T15:17:14;97826.41;;;13.68;65.95
6514;BME280;3290;47.716;9.070;2023-02-19T15:19:42;97829.53;;;13.59;65.70
6514;BME280;3290;47.716;9.070;2023-02-19T15:22:13;97834.41;;;13.55;66.35
6514;BME280;3290;47.716;9.070;2023-02-19T15:24:43;97838.50;;;13.45;66.58
6514;BME280;3290;47.716;9.070;2023-02-19T15:27:22;97839.25;;;13.58;66.40
6514;BME280;3290;47.716;9.070;2023-02-19T15:29:49;97843.28;;;13.54;64.98
6514;BME280;3290;47.716;9.070;2023-02-19T15:32:21;97845.69;;;13.62;64.21
6514;BME280;3290;47.716;9.070;2023-02-19T15:35:01;97843.09;;;13.56;64.30
6514;BME280;3290;47.716;9.070;2023-02-19T15:37:32;97841.00;;;13.27;64.43
6514;BME280;3290;47.716;9.070;2023-02-19T15:40:03;97852.84;;;12.73;65.95
6514;BME280;3290;47.716;9.070;2023-02-19T15:42:33;97853.09;;;12.84;65.44
6514;BME280;3290;47.716;9.070;2023-02-19T15:45:05;97852.78;;;13.12;63.70
6514;BME280;3290;47.716;9.070;2023-02-19T15:50:22;97858.91;;;12.93;64.89
6514;BME280;3290;47.716;9.070;2023-02-19T15:53:03;97867.03;;;12.85;63.89
6514;BME280;3290;47.716;9.070;2023-02-19T16:03:19;97862.91;;;13.15;62.05
6514;BME280;3290;47.716;9.070;2023-02-19T16:05:45;97858.00;;;13.24;61.26